sensor_id;sensor_type;location;lat;lon;timestamp;temperature;humidity
51765;DHT22;37835;53.256;6.456;2022-12-07T00:01:38;3.80;99.90
51765;DHT22;37835;53.256;6.456;2022-12-07T00:04:05;3.80;99.90
51765;DHT22;37835;53.256;6.456;2022-12-07T00:06:40;3.20;99.90
51765;DHT22;37835;53.256;6.456;2022-12-07T00:09:08;3.80;99.90
51765;DHT22;37835;53.256;6.456;2022-12-07T00:11:35;3.90;99.90
51765;DHT22;37835;53.256;6.456;2022-12-07T00:14:02;4.30;99.90
51765;DHT22;37835;53.256;6.456;2022-12-07T00:16:30;3.70;99.90
51765;DHT22;37835;53.256;6.456;2022-12-07T00:18:56;4.20;99.90
51765;DHT22;37835;53.256;6.456;2022-12-07T00:21:24;4.40;99.90
51765;DHT22;37835;53.256;6.456;2022-12-07T00:23:51;3.70;99.90
51765;DHT22;37835;53.256;6.456;2022-12-07T00:26:23;3.70;99.90
51765;DHT22;37835;53.256;6.456;2022-12-07T00:28:54;3.80;99.90
51765;DHT22;37835;53.256;6.456;2022-12-07T00:31:22;3.80;99.90
51765;DHT22;37835;53.256;6.456;2022-12-07T00:33:48;5.10;99.90
51765;DHT22;37835;53.256;6.456;2022-12-07T00:36:16;4.20;99.90
51765;DHT22;37835;53.256;6.456;2022-12-07T00:38:42;3.20;99.90
51765;DHT22;37835;53.256;6.456;2022-12-07T00:41:13;3.80;99.90
51765;DHT22;37835;53.256;6.456;2022-12-07T00:43:40;1.90;99.90
51765;DHT22;37835;53.256;6.456;2022-12-07T00:46:06;3.60;99.90
51765;DHT22;37835;53.256;6.456;2022-12-07T00:48:32;3.90;99.90
51765;DHT22;37835;53.256;6.456;2022-12-07T00:50:58;4.80;99.90
51765;DHT22;37835;53.256;6.456;2022-12-07T00:53:24;4.20;99.90
51765;DHT22;37835;53.256;6.456;2022-12-07T00:55:50;5.70;99.90
51765;DHT22;37835;53.256;6.456;2022-12-07T00:58:15;5.90;99.90
51765;DHT22;37835;53.256;6.456;2022-12-07T01:00:42;4.50;99.90
51765;DHT22;37835;53.256;6.456;2022-12-07T01:03:10;4.00;99.90
51765;DHT22;37835;53.256;6.456;2022-12-07T01:05:36;4.10;99.90
51765;DHT22;37835;53.256;6.456;2022-12-07T01:08:02;4.30;99.90
51765;DHT22;37835;53.256;6.456;2022-12-07T01:10:28;3.60;99.90
51765;DHT22;37835;53.256;6.456;2022-12-07T01:12:56;4.40;99.90
51765;DHT22;37835;53.256;6.456;2022-12-07T01:15:21;3.20;99.90
51765;DHT22;37835;53.256;6.456;2022-12-07T01:17:47;4.70;99.90
51765;DHT22;37835;53.256;6.456;2022-12-07T01:20:13;3.60;99.90
51765;DHT22;37835;53.256;6.456;2022-12-07T01:22:40;3.70;99.90
51765;DHT22;37835;53.256;6.456;2022-12-07T01:25:07;3.90;99.90
51765;DHT22;37835;53.256;6.456;2022-12-07T01:27:34;3.90;99.90
51765;DHT22;37835;53.256;6.456;2022-12-07T01:30:00;4.10;99.90
51765;DHT22;37835;53.256;6.456;2022-12-07T01:32:26;4.20;99.90
51765;DHT22;37835;53.256;6.456;2022-12-07T01:34:51;4.10;99.90
51765;DHT22;37835;53.256;6.456;2022-12-07T01:37:17;2.60;99.90
51765;DHT22;37835;53.256;6.456;2022-12-07T01:39:42;3.90;99.90
51765;DHT22;37835;53.256;6.456;2022-12-07T01:42:10;3.90;99.90
51765;DHT22;37835;53.256;6.456;2022-12-07T01:47:40;3.90;99.90
51765;DHT22;37835;53.256;6.456;2022-12-07T01:50:06;2.30;99.90
51765;DHT22;37835;53.256;6.456;2022-12-07T01:52:33;2.80;99.90
51765;DHT22;37835;53.256;6.456;2022-12-07T01:55:02;3.90;99.90
51765;DHT22;37835;53.256;6.456;2022-12-07T01:57:31;3.90;99.90
51765;DHT22;37835;53.256;6.456;2022-12-07T01:59:58;2.50;99.90
51765;DHT22;37835;53.256;6.456;2022-12-07T02:02:34;3.90;99.90
51765;DHT22;37835;53.256;6.456;2022-12-07T02:05:02;3.90;99.90
51765;DHT22;37835;53.256;6.456;2022-12-07T02:07:29;3.80;99.90
51765;DHT22;37835;53.256;6.456;2022-12-07T02:09:55;3.80;99.90
51765;DHT22;37835;53.256;6.456;2022-12-07T02:12:21;3.80;99.90
51765;DHT22;37835;53.256;6.456;2022-12-07T02:14:47;3.90;99.90
51765;DHT22;37835;53.256;6.456;2022-12-07T02:17:31;4.10;99.90
51765;DHT22;37835;53.256;6.456;2022-12-07T02:20:21;4.10;99.90
51765;DHT22;37835;53.256;6.456;2022-12-07T02:25:47;3.60;99.90
51765;DHT22;37835;53.256;6.456;2022-12-07T02:31:28;3.50;99.90
51765;DHT22;37835;53.256;6.456;2022-12-07T02:34:26;4.70;99.90
51765;DHT22;37835;53.256;6.456;2022-12-07T02:36:54;3.70;99.90
51765;DHT22;37835;53.256;6.456;2022-12-07T02:39:43;3.90;99.90
51765;DHT22;37835;53.256;6.456;2022-12-07T02:42:15;3.80;99.90
51765;DHT22;37835;53.256;6.456;2022-12-07T02:44:43;2.90;99.90
51765;DHT22;37835;53.256;6.456;2022-12-07T02:47:12;4.00;99.90
51765;DHT22;37835;53.256;6.456;2022-12-07T02:49:39;4.90;99.90
51765;DHT22;37835;53.256;6.456;2022-12-07T02:52:05;4.90;99.90
51765;DHT22;37835;53.256;6.456;2022-12-07T02:54:31;2.90;99.90
51765;DHT22;37835;53.256;6.456;2022-12-07T02:59:47;4.10;99.90
51765;DHT22;37835;53.256;6.456;2022-12-07T03:17:58;4.10;99.90
51765;DHT22;37835;53.256;6.456;2022-12-07T03:20:26;4.50;99.90
51765;DHT22;37835;53.256;6.456;2022-12-07T03:22:53;3.50;99.90
51765;DHT22;37835;53.256;6.456;2022-12-07T03:25:20;4.10;99.90
51765;DHT22;37835;53.256;6.456;2022-12-07T03:30:27;4.20;99.90
51765;DHT22;37835;53.256;6.456;2022-12-07T03:33:04;4.00;99.90
51765;DHT22;37835;53.256;6.456;2022-12-07T03:35:36;3.40;99.90
51765;DHT22;37835;53.256;6.456;2022-12-07T03:38:19;4.20;99.90
51765;DHT22;37835;53.256;6.456;2022-12-07T03:41:06;4.70;99.90
51765;DHT22;37835;53.256;6.456;2022-12-07T03:43:34;4.00;99.90
51765;DHT22;37835;53.256;6.456;2022-12-07T03:54:26;3.90;99.90
51765;DHT22;37835;53.256;6.456;2022-12-07T03:56:54;3.90;99.90
51765;DHT22;37835;53.256;6.456;2022-12-07T03:59:20;3.90;99.90
51765;DHT22;37835;53.256;6.456;2022-12-07T04:01:53;3.90;99.90
51765;DHT22;37835;53.256;6.456;2022-12-07T04:04:19;3.90;99.90
51765;DHT22;37835;53.256;6.456;2022-12-07T04:06:44;4.20;99.90
51765;DHT22;37835;53.256;6.456;2022-12-07T04:11:36;4.10;99.90
51765;DHT22;37835;53.256;6.456;2022-12-07T04:14:01;3.80;99.90
51765;DHT22;37835;53.256;6.456;2022-12-07T04:16:46;3.70;99.90
51765;DHT22;37835;53.256;6.456;2022-12-07T04:19:12;3.80;99.90
51765;DHT22;37835;53.256;6.456;2022-12-07T04:24:04;3.60;99.90
51765;DHT22;37835;53.256;6.456;2022-12-07T04:26:30;3.60;99.90
51765;DHT22;37835;53.256;6.456;2022-12-07T04:28:56;3.50;99.90
51765;DHT22;37835;53.256;6.456;2022-12-07T04:31:21;3.80;99.90
51765;DHT22;37835;53.256;6.456;2022-12-07T04:33:47;3.50;99.90
51765;DHT22;37835;53.256;6.456;2022-12-07T04:36:12;3.50;99.90
51765;DHT22;37835;53.256;6.456;2022-12-07T04:38:38;3.20;99.90
51765;DHT22;37835;53.256;6.456;2022-12-07T04:41:05;3.10;99.90
51765;DHT22;37835;53.256;6.456;2022-12-07T04:43:31;5.10;99.90
51765;DHT22;37835;53.256;6.456;2022-12-07T04:45:56;3.50;99.90
51765;DHT22;37835;53.256;6.456;2022-12-07T04:48:22;3.50;99.90
51765;DHT22;37835;53.256;6.456;2022-12-07T04:50:48;3.60;99.90
51765;DHT22;37835;53.256;6.456;2022-12-07T04:53:17;3.50;99.90
51765;DHT22;37835;53.256;6.456;2022-12-07T04:55:44;3.40;99.90
51765;DHT22;37835;53.256;6.456;2022-12-07T04:58:10;4.30;99.90
51765;DHT22;37835;53.256;6.456;2022-12-07T05:00:35;3.80;99.90
51765;DHT22;37835;53.256;6.456;2022-12-07T05:03:01;3.40;99.90
51765;DHT22;37835;53.256;6.456;2022-12-07T05:05:27;3.40;99.90
51765;DHT22;37835;53.256;6.456;2022-12-07T05:07:52;3.30;99.90
51765;DHT22;37835;53.256;6.456;2022-12-07T05:10:18;3.20;99.90
51765;DHT22;37835;53.256;6.456;2022-12-07T05:12:43;4.10;99.90
51765;DHT22;37835;53.256;6.456;2022-12-07T05:15:09;2.80;99.90
51765;DHT22;37835;53.256;6.456;2022-12-07T05:17:35;3.50;99.90
51765;DHT22;37835;53.256;6.456;2022-12-07T05:20:00;2.90;99.90
51765;DHT22;37835;53.256;6.456;2022-12-07T05:22:26;4.80;99.90
51765;DHT22;37835;53.256;6.456;2022-12-07T05:24:54;4.20;99.90
51765;DHT22;37835;53.256;6.456;2022-12-07T05:27:20;2.90;99.90
51765;DHT22;37835;53.256;6.456;2022-12-07T05:29:45;3.30;99.90
51765;DHT22;37835;53.256;6.456;2022-12-07T05:32:11;2.80;99.90
51765;DHT22;37835;53.256;6.456;2022-12-07T05:34:37;3.00;99.90
51765;DHT22;37835;53.256;6.456;2022-12-07T05:37:02;2.30;99.90
51765;DHT22;37835;53.256;6.456;2022-12-07T05:39:28;2.60;99.90
51765;DHT22;37835;53.256;6.456;2022-12-07T05:41:54;2.80;99.90
51765;DHT22;37835;53.256;6.456;2022-12-07T05:44:42;2.30;99.90
51765;DHT22;37835;53.256;6.456;2022-12-07T05:47:09;2.70;99.90
51765;DHT22;37835;53.256;6.456;2022-12-07T05:49:34;3.50;99.90
51765;DHT22;37835;53.256;6.456;2022-12-07T05:52:00;3.30;99.90
51765;DHT22;37835;53.256;6.456;2022-12-07T05:54:26;3.40;99.90
51765;DHT22;37835;53.256;6.456;2022-12-07T05:56:51;3.70;99.90
51765;DHT22;37835;53.256;6.456;2022-12-07T05:59:17;2.60;99.90
51765;DHT22;37835;53.256;6.456;2022-12-07T06:02:05;2.50;99.90
51765;DHT22;37835;53.256;6.456;2022-12-07T06:04:33;3.80;99.90
51765;DHT22;37835;53.256;6.456;2022-12-07T06:06:59;2.20;99.90
51765;DHT22;37835;53.256;6.456;2022-12-07T06:09:26;2.60;99.90
51765;DHT22;37835;53.256;6.456;2022-12-07T06:11:52;2.50;99.90
51765;DHT22;37835;53.256;6.456;2022-12-07T06:14:37;2.10;99.90
51765;DHT22;37835;53.256;6.456;2022-12-07T06:17:03;4.10;99.90
51765;DHT22;37835;53.256;6.456;2022-12-07T06:19:28;3.90;99.90
51765;DHT22;37835;53.256;6.456;2022-12-07T06:21:54;1.80;99.90
51765;DHT22;37835;53.256;6.456;2022-12-07T06:24:20;1.30;99.90
51765;DHT22;37835;53.256;6.456;2022-12-07T06:26:45;2.90;99.90
51765;DHT22;37835;53.256;6.456;2022-12-07T06:29:11;2.70;99.90
51765;DHT22;37835;53.256;6.456;2022-12-07T06:31:37;2.90;99.90
51765;DHT22;37835;53.256;6.456;2022-12-07T06:34:10;4.40;99.90
51765;DHT22;37835;53.256;6.456;2022-12-07T06:36:36;2.70;99.90
51765;DHT22;37835;53.256;6.456;2022-12-07T06:39:02;0.40;99.90
51765;DHT22;37835;53.256;6.456;2022-12-07T06:41:28;2.40;99.90
51765;DHT22;37835;53.256;6.456;2022-12-07T06:43:54;2.30;99.90
51765;DHT22;37835;53.256;6.456;2022-12-07T06:46:19;2.60;99.90
51765;DHT22;37835;53.256;6.456;2022-12-07T06:48:45;2.60;99.90
51765;DHT22;37835;53.256;6.456;2022-12-07T06:51:10;3.70;99.90
51765;DHT22;37835;53.256;6.456;2022-12-07T06:53:36;1.90;99.90
51765;DHT22;37835;53.256;6.456;2022-12-07T06:56:03;1.10;99.90
51765;DHT22;37835;53.256;6.456;2022-12-07T06:58:28;2.00;99.90
51765;DHT22;37835;53.256;6.456;2022-12-07T07:00:54;2.30;99.90
51765;DHT22;37835;53.256;6.456;2022-12-07T07:03:20;2.60;99.90
51765;DHT22;37835;53.256;6.456;2022-12-07T07:05:46;2.50;99.90
51765;DHT22;37835;53.256;6.456;2022-12-07T07:08:12;3.90;99.90
51765;DHT22;37835;53.256;6.456;2022-12-07T07:10:38;2.10;99.90
51765;DHT22;37835;53.256;6.456;2022-12-07T07:13:04;2.40;99.90
51765;DHT22;37835;53.256;6.456;2022-12-07T07:15:30;2.40;99.90
51765;DHT22;37835;53.256;6.456;2022-12-07T07:17:55;2.30;99.90
51765;DHT22;37835;53.256;6.456;2022-12-07T07:20:21;2.70;99.90
51765;DHT22;37835;53.256;6.456;2022-12-07T07:22:48;2.50;99.90
51765;DHT22;37835;53.256;6.456;2022-12-07T07:25:13;2.50;99.90
51765;DHT22;37835;53.256;6.456;2022-12-07T07:27:39;2.50;99.90
51765;DHT22;37835;53.256;6.456;2022-12-07T07:30:05;3.60;99.90
51765;DHT22;37835;53.256;6.456;2022-12-07T07:32:31;3.00;99.90
51765;DHT22;37835;53.256;6.456;2022-12-07T07:34:57;2.40;99.90
51765;DHT22;37835;53.256;6.456;2022-12-07T07:37:22;1.70;99.90
51765;DHT22;37835;53.256;6.456;2022-12-07T07:39:48;2.40;99.90
51765;DHT22;37835;53.256;6.456;2022-12-07T07:42:14;2.20;99.90
51765;DHT22;37835;53.256;6.456;2022-12-07T07:44:40;3.10;99.90
51765;DHT22;37835;53.256;6.456;2022-12-07T07:47:05;2.30;99.90
51765;DHT22;37835;53.256;6.456;2022-12-07T07:49:31;2.10;99.90
51765;DHT22;37835;53.256;6.456;2022-12-07T07:51:57;2.20;99.90
51765;DHT22;37835;53.256;6.456;2022-12-07T07:54:22;0.70;99.90
51765;DHT22;37835;53.256;6.456;2022-12-07T07:56:48;2.10;99.90
51765;DHT22;37835;53.256;6.456;2022-12-07T07:59:14;2.80;99.90
51765;DHT22;37835;53.256;6.456;2022-12-07T08:01:40;2.30;99.90
51765;DHT22;37835;53.256;6.456;2022-12-07T08:04:05;2.10;99.90
51765;DHT22;37835;53.256;6.456;2022-12-07T08:06:31;2.10;99.90
51765;DHT22;37835;53.256;6.456;2022-12-07T08:08:56;1.90;99.90
51765;DHT22;37835;53.256;6.456;2022-12-07T08:11:23;1.10;99.90
51765;DHT22;37835;53.256;6.456;2022-12-07T08:13:49;2.80;99.90
51765;DHT22;37835;53.256;6.456;2022-12-07T08:16:15;3.30;99.90
51765;DHT22;37835;53.256;6.456;2022-12-07T08:18:41;-0.50;99.90
51765;DHT22;37835;53.256;6.456;2022-12-07T08:21:11;0.70;99.90
51765;DHT22;37835;53.256;6.456;2022-12-07T08:23:37;3.60;99.90
51765;DHT22;37835;53.256;6.456;2022-12-07T08:26:04;2.00;99.90
51765;DHT22;37835;53.256;6.456;2022-12-07T08:28:30;0.70;99.90
51765;DHT22;37835;53.256;6.456;2022-12-07T08:31:04;2.50;99.90
51765;DHT22;37835;53.256;6.456;2022-12-07T08:33:30;2.40;99.90
51765;DHT22;37835;53.256;6.456;2022-12-07T08:36:04;2.20;99.90
51765;DHT22;37835;53.256;6.456;2022-12-07T08:38:30;2.30;99.90
51765;DHT22;37835;53.256;6.456;2022-12-07T08:40:56;3.40;99.90
51765;DHT22;37835;53.256;6.456;2022-12-07T08:43:23;2.60;99.90
51765;DHT22;37835;53.256;6.456;2022-12-07T08:46:11;2.20;99.90
51765;DHT22;37835;53.256;6.456;2022-12-07T08:48:54;2.70;99.90
51765;DHT22;37835;53.256;6.456;2022-12-07T08:51:22;3.30;99.90
51765;DHT22;37835;53.256;6.456;2022-12-07T08:53:49;2.10;99.90
51765;DHT22;37835;53.256;6.456;2022-12-07T08:56:16;3.50;99.90
51765;DHT22;37835;53.256;6.456;2022-12-07T09:01:08;3.40;99.90
51765;DHT22;37835;53.256;6.456;2022-12-07T09:06:00;5.00;99.90
51765;DHT22;37835;53.256;6.456;2022-12-07T09:08:29;3.60;99.90
51765;DHT22;37835;53.256;6.456;2022-12-07T09:10:56;3.60;99.90
51765;DHT22;37835;53.256;6.456;2022-12-07T09:13:22;4.00;99.90
51765;DHT22;37835;53.256;6.456;2022-12-07T09:15:47;3.70;99.90
51765;DHT22;37835;53.256;6.456;2022-12-07T09:18:13;4.70;99.90
51765;DHT22;37835;53.256;6.456;2022-12-07T09:20:39;4.20;99.90
51765;DHT22;37835;53.256;6.456;2022-12-07T09:23:07;3.40;99.90
51765;DHT22;37835;53.256;6.456;2022-12-07T09:25:34;4.00;99.90
51765;DHT22;37835;53.256;6.456;2022-12-07T09:28:00;4.50;99.90
51765;DHT22;37835;53.256;6.456;2022-12-07T09:30:26;4.90;99.90
51765;DHT22;37835;53.256;6.456;2022-12-07T09:32:56;5.60;99.90
51765;DHT22;37835;53.256;6.456;2022-12-07T09:35:23;4.30;99.90
51765;DHT22;37835;53.256;6.456;2022-12-07T09:37:49;4.20;99.90
51765;DHT22;37835;53.256;6.456;2022-12-07T09:40:17;4.40;99.90
51765;DHT22;37835;53.256;6.456;2022-12-07T09:42:47;4.80;99.90
51765;DHT22;37835;53.256;6.456;2022-12-07T09:45:18;4.30;99.90
51765;DHT22;37835;53.256;6.456;2022-12-07T09:47:45;4.40;99.90
51765;DHT22;37835;53.256;6.456;2022-12-07T09:50:16;4.10;99.90
51765;DHT22;37835;53.256;6.456;2022-12-07T09:52:45;4.20;99.90
51765;DHT22;37835;53.256;6.456;2022-12-07T09:55:15;4.40;99.90
51765;DHT22;37835;53.256;6.456;2022-12-07T09:57:41;4.20;99.90
51765;DHT22;37835;53.256;6.456;2022-12-07T10:00:16;2.40;99.90
51765;DHT22;37835;53.256;6.456;2022-12-07T10:02:50;4.20;99.90
51765;DHT22;37835;53.256;6.456;2022-12-07T10:05:19;4.20;99.90
51765;DHT22;37835;53.256;6.456;2022-12-07T10:07:46;4.60;99.90
51765;DHT22;37835;53.256;6.456;2022-12-07T10:10:34;4.30;99.90
51765;DHT22;37835;53.256;6.456;2022-12-07T10:13:09;4.60;99.90
51765;DHT22;37835;53.256;6.456;2022-12-07T10:18:37;3.50;99.90
51765;DHT22;37835;53.256;6.456;2022-12-07T10:21:11;5.80;99.90
51765;DHT22;37835;53.256;6.456;2022-12-07T10:23:40;4.60;99.90
51765;DHT22;37835;53.256;6.456;2022-12-07T10:26:29;3.90;99.90
51765;DHT22;37835;53.256;6.456;2022-12-07T10:28:59;4.70;99.90
51765;DHT22;37835;53.256;6.456;2022-12-07T10:31:25;4.80;99.90
51765;DHT22;37835;53.256;6.456;2022-12-07T10:39:10;6.10;99.90
51765;DHT22;37835;53.256;6.456;2022-12-07T10:41:56;5.80;99.90
51765;DHT22;37835;53.256;6.456;2022-12-07T10:44:25;5.10;99.90
51765;DHT22;37835;53.256;6.456;2022-12-07T10:52:50;5.30;99.90
51765;DHT22;37835;53.256;6.456;2022-12-07T10:55:46;4.80;99.90
51765;DHT22;37835;53.256;6.456;2022-12-07T11:03:53;5.10;99.90
51765;DHT22;37835;53.256;6.456;2022-12-07T11:06:34;6.00;99.90
51765;DHT22;37835;53.256;6.456;2022-12-07T11:09:14;4.30;99.90
51765;DHT22;37835;53.256;6.456;2022-12-07T11:11:59;4.90;99.90
51765;DHT22;37835;53.256;6.456;2022-12-07T11:17:23;5.70;99.90
51765;DHT22;37835;53.256;6.456;2022-12-07T11:28:47;3.60;99.90
51765;DHT22;37835;53.256;6.456;2022-12-07T11:31:38;4.70;99.90
51765;DHT22;37835;53.256;6.456;2022-12-07T11:34:29;5.70;99.90
51765;DHT22;37835;53.256;6.456;2022-12-07T11:37:02;4.70;99.90
51765;DHT22;37835;53.256;6.456;2022-12-07T11:39:36;4.60;99.90
51765;DHT22;37835;53.256;6.456;2022-12-07T11:42:21;4.70;99.90
51765;DHT22;37835;53.256;6.456;2022-12-07T11:44:59;4.40;99.90
51765;DHT22;37835;53.256;6.456;2022-12-07T11:47:45;4.80;99.90
51765;DHT22;37835;53.256;6.456;2022-12-07T11:55:41;5.00;99.90
51765;DHT22;37835;53.256;6.456;2022-12-07T12:01:14;5.10;99.90
51765;DHT22;37835;53.256;6.456;2022-12-07T12:03:56;5.10;99.90
51765;DHT22;37835;53.256;6.456;2022-12-07T12:06:23;4.70;99.90
51765;DHT22;37835;53.256;6.456;2022-12-07T12:09:09;5.20;99.90
51765;DHT22;37835;53.256;6.456;2022-12-07T12:20:26;5.20;99.90
51765;DHT22;37835;53.256;6.456;2022-12-07T12:28:29;3.60;99.90
51765;DHT22;37835;53.256;6.456;2022-12-07T12:31:07;5.20;99.90
51765;DHT22;37835;53.256;6.456;2022-12-07T12:33:33;6.00;99.90
51765;DHT22;37835;53.256;6.456;2022-12-07T12:44:02;5.30;99.90
51765;DHT22;37835;53.256;6.456;2022-12-07T12:52:00;5.20;99.90
51765;DHT22;37835;53.256;6.456;2022-12-07T12:54:34;5.10;99.90
51765;DHT22;37835;53.256;6.456;2022-12-07T13:02:38;5.20;99.90
51765;DHT22;37835;53.256;6.456;2022-12-07T13:17:59;2.90;99.90
51765;DHT22;37835;53.256;6.456;2022-12-07T13:20:42;4.50;99.90
51765;DHT22;37835;53.256;6.456;2022-12-07T13:23:09;4.80;99.90
51765;DHT22;37835;53.256;6.456;2022-12-07T13:25:41;6.00;99.90
51765;DHT22;37835;53.256;6.456;2022-12-07T13:28:15;4.50;99.90
51765;DHT22;37835;53.256;6.456;2022-12-07T13:30:52;4.40;99.90
51765;DHT22;37835;53.256;6.456;2022-12-07T13:33:19;4.80;99.90
51765;DHT22;37835;53.256;6.456;2022-12-07T13:35:45;4.80;99.90
51765;DHT22;37835;53.256;6.456;2022-12-07T13:38:27;4.10;99.90
51765;DHT22;37835;53.256;6.456;2022-12-07T13:41:20;3.90;99.90
51765;DHT22;37835;53.256;6.456;2022-12-07T13:43:50;4.30;99.90
51765;DHT22;37835;53.256;6.456;2022-12-07T13:46:20;4.10;99.90
51765;DHT22;37835;53.256;6.456;2022-12-07T13:48:49;5.50;99.90
51765;DHT22;37835;53.256;6.456;2022-12-07T13:53:48;4.60;99.90
51765;DHT22;37835;53.256;6.456;2022-12-07T13:56:15;4.20;99.90
51765;DHT22;37835;53.256;6.456;2022-12-07T13:58:41;4.20;99.90
51765;DHT22;37835;53.256;6.456;2022-12-07T14:01:07;3.90;99.90
51765;DHT22;37835;53.256;6.456;2022-12-07T14:03:35;3.90;99.90
51765;DHT22;37835;53.256;6.456;2022-12-07T14:06:27;4.60;99.90
51765;DHT22;37835;53.256;6.456;2022-12-07T14:09:21;4.50;99.90
51765;DHT22;37835;53.256;6.456;2022-12-07T14:11:48;4.10;99.90
51765;DHT22;37835;53.256;6.456;2022-12-07T14:14:18;4.00;99.90
51765;DHT22;37835;53.256;6.456;2022-12-07T14:16:58;3.90;99.90
51765;DHT22;37835;53.256;6.456;2022-12-07T14:20:00;3.80;99.90
51765;DHT22;37835;53.256;6.456;2022-12-07T14:22:37;3.90;99.90
51765;DHT22;37835;53.256;6.456;2022-12-07T14:25:21;3.70;99.90
51765;DHT22;37835;53.256;6.456;2022-12-07T14:27:58;3.70;99.90
51765;DHT22;37835;53.256;6.456;2022-12-07T14:30:30;3.80;99.90
51765;DHT22;37835;53.256;6.456;2022-12-07T14:33:04;3.20;99.90
51765;DHT22;37835;53.256;6.456;2022-12-07T14:35:31;3.70;99.90
51765;DHT22;37835;53.256;6.456;2022-12-07T14:37:57;3.60;99.90
51765;DHT22;37835;53.256;6.456;2022-12-07T14:40:28;3.60;99.90
51765;DHT22;37835;53.256;6.456;2022-12-07T14:42:58;4.50;99.90
51765;DHT22;37835;53.256;6.456;2022-12-07T14:45:25;3.40;99.90
51765;DHT22;37835;53.256;6.456;2022-12-07T14:47:51;3.60;99.90
51765;DHT22;37835;53.256;6.456;2022-12-07T14:50:19;3.50;99.90
51765;DHT22;37835;53.256;6.456;2022-12-07T14:52:49;4.30;99.90
51765;DHT22;37835;53.256;6.456;2022-12-07T14:55:27;4.10;99.90
51765;DHT22;37835;53.256;6.456;2022-12-07T14:57:53;4.20;99.90
51765;DHT22;37835;53.256;6.456;2022-12-07T15:00:21;3.30;99.90
51765;DHT22;37835;53.256;6.456;2022-12-07T15:02:48;3.70;99.90
51765;DHT22;37835;53.256;6.456;2022-12-07T15:07:41;2.00;99.90
51765;DHT22;37835;53.256;6.456;2022-12-07T15:10:19;4.30;99.90
51765;DHT22;37835;53.256;6.456;2022-12-07T15:12:45;3.40;99.90
51765;DHT22;37835;53.256;6.456;2022-12-07T15:15:11;2.30;99.90
51765;DHT22;37835;53.256;6.456;2022-12-07T15:17:36;0.80;99.90
51765;DHT22;37835;53.256;6.456;2022-12-07T15:20:02;2.80;99.90
51765;DHT22;37835;53.256;6.456;2022-12-07T15:22:28;3.10;99.90
51765;DHT22;37835;53.256;6.456;2022-12-07T15:24:56;3.10;99.90
51765;DHT22;37835;53.256;6.456;2022-12-07T15:27:22;3.00;99.90
51765;DHT22;37835;53.256;6.456;2022-12-07T15:29:48;2.70;99.90
51765;DHT22;37835;53.256;6.456;2022-12-07T15:32:13;2.90;99.90
51765;DHT22;37835;53.256;6.456;2022-12-07T15:34:39;3.00;99.90
51765;DHT22;37835;53.256;6.456;2022-12-07T15:37:05;3.30;99.90
51765;DHT22;37835;53.256;6.456;2022-12-07T15:39:30;2.90;99.90
51765;DHT22;37835;53.256;6.456;2022-12-07T15:41:56;2.90;99.90
51765;DHT22;37835;53.256;6.456;2022-12-07T15:44:21;3.20;99.90
51765;DHT22;37835;53.256;6.456;2022-12-07T15:47:06;2.70;99.90
51765;DHT22;37835;53.256;6.456;2022-12-07T15:49:31;2.80;99.90
51765;DHT22;37835;53.256;6.456;2022-12-07T15:51:57;2.80;99.90
51765;DHT22;37835;53.256;6.456;2022-12-07T15:54:25;2.40;99.90
51765;DHT22;37835;53.256;6.456;2022-12-07T15:56:51;2.80;99.90
51765;DHT22;37835;53.256;6.456;2022-12-07T15:59:17;2.80;99.90
51765;DHT22;37835;53.256;6.456;2022-12-07T16:01:43;2.00;99.90
51765;DHT22;37835;53.256;6.456;2022-12-07T16:04:09;3.20;99.90
51765;DHT22;37835;53.256;6.456;2022-12-07T16:06:35;3.10;99.90
51765;DHT22;37835;53.256;6.456;2022-12-07T16:11:26;3.00;99.90
51765;DHT22;37835;53.256;6.456;2022-12-07T16:13:52;3.00;99.90
51765;DHT22;37835;53.256;6.456;2022-12-07T16:16:18;4.10;99.90
51765;DHT22;37835;53.256;6.456;2022-12-07T16:18:46;4.20;99.90
51765;DHT22;37835;53.256;6.456;2022-12-07T16:21:13;3.40;99.90
51765;DHT22;37835;53.256;6.456;2022-12-07T16:23:39;2.70;99.90
51765;DHT22;37835;53.256;6.456;2022-12-07T16:26:10;2.70;99.90
51765;DHT22;37835;53.256;6.456;2022-12-07T16:28:36;2.80;99.90
51765;DHT22;37835;53.256;6.456;2022-12-07T16:31:07;2.50;99.90
51765;DHT22;37835;53.256;6.456;2022-12-07T16:33:37;3.10;99.90
51765;DHT22;37835;53.256;6.456;2022-12-07T16:36:05;2.60;99.90
51765;DHT22;37835;53.256;6.456;2022-12-07T16:38:31;2.40;99.90
51765;DHT22;37835;53.256;6.456;2022-12-07T16:40:57;3.10;99.90
51765;DHT22;37835;53.256;6.456;2022-12-07T16:43:23;4.30;99.90
51765;DHT22;37835;53.256;6.456;2022-12-07T16:45:48;2.60;99.90
51765;DHT22;37835;53.256;6.456;2022-12-07T16:48:14;2.70;99.90
51765;DHT22;37835;53.256;6.456;2022-12-07T16:50:41;2.70;99.90
51765;DHT22;37835;53.256;6.456;2022-12-07T16:53:11;2.60;99.90
51765;DHT22;37835;53.256;6.456;2022-12-07T16:55:40;2.70;99.90
51765;DHT22;37835;53.256;6.456;2022-12-07T16:58:07;3.40;99.90
51765;DHT22;37835;53.256;6.456;2022-12-07T17:00:33;3.00;99.90
51765;DHT22;37835;53.256;6.456;2022-12-07T17:02:59;2.40;99.90
51765;DHT22;37835;53.256;6.456;2022-12-07T17:05:26;2.00;99.90
51765;DHT22;37835;53.256;6.456;2022-12-07T17:07:53;2.70;99.90
51765;DHT22;37835;53.256;6.456;2022-12-07T17:10:19;3.40;99.90
51765;DHT22;37835;53.256;6.456;2022-12-07T17:12:45;1.00;99.90
51765;DHT22;37835;53.256;6.456;2022-12-07T17:15:11;3.80;99.90
51765;DHT22;37835;53.256;6.456;2022-12-07T17:17:57;2.60;99.90
51765;DHT22;37835;53.256;6.456;2022-12-07T17:20:25;2.80;99.90
51765;DHT22;37835;53.256;6.456;2022-12-07T17:22:52;4.00;99.90
51765;DHT22;37835;53.256;6.456;2022-12-07T17:25:17;1.50;99.90
51765;DHT22;37835;53.256;6.456;2022-12-07T17:27:44;3.30;99.90
51765;DHT22;37835;53.256;6.456;2022-12-07T17:30:11;3.20;99.90
51765;DHT22;37835;53.256;6.456;2022-12-07T17:32:37;2.70;99.90
51765;DHT22;37835;53.256;6.456;2022-12-07T17:35:04;3.70;99.90
51765;DHT22;37835;53.256;6.456;2022-12-07T17:37:30;4.20;99.90
51765;DHT22;37835;53.256;6.456;2022-12-07T17:39:56;0.60;99.90
51765;DHT22;37835;53.256;6.456;2022-12-07T17:42:26;3.20;99.90
51765;DHT22;37835;53.256;6.456;2022-12-07T17:45:12;3.70;99.90
51765;DHT22;37835;53.256;6.456;2022-12-07T17:47:38;3.80;99.90
51765;DHT22;37835;53.256;6.456;2022-12-07T17:50:05;2.80;99.90
51765;DHT22;37835;53.256;6.456;2022-12-07T17:52:32;3.60;99.90
51765;DHT22;37835;53.256;6.456;2022-12-07T17:55:16;2.80;99.90
51765;DHT22;37835;53.256;6.456;2022-12-07T17:57:42;2.70;99.90
51765;DHT22;37835;53.256;6.456;2022-12-07T18:00:08;2.80;99.90
51765;DHT22;37835;53.256;6.456;2022-12-07T18:02:36;2.80;99.90
51765;DHT22;37835;53.256;6.456;2022-12-07T18:05:01;2.50;99.90
51765;DHT22;37835;53.256;6.456;2022-12-07T18:07:27;1.00;99.90
51765;DHT22;37835;53.256;6.456;2022-12-07T18:09:52;3.80;99.90
51765;DHT22;37835;53.256;6.456;2022-12-07T18:12:18;2.70;99.90
51765;DHT22;37835;53.256;6.456;2022-12-07T18:14:43;3.40;99.90
51765;DHT22;37835;53.256;6.456;2022-12-07T18:17:09;0.50;99.90
51765;DHT22;37835;53.256;6.456;2022-12-07T18:19:34;2.60;99.90